Hazen, ND

7:34 PM CST on November 11, 2019 (GMT -0600)
Mercer County Regional

Weather History for KHZE - October, 2019

Change the Weather History Date:

Saturday, October 12, 2019

  Actual Average (WUND) Record (WUND)
Temperature  
Mean Temperature 32 °F -  
Max Temperature 35 °F - - (-1)
Min Temperature 30 °F - - (-1)
Degree Days  
Heating Degree Days 32    
Moisture  
Dew Point 29 °F    
Average Humidity 89    
Maximum Humidity 100    
Minimum Humidity 60    
Precipitation  
Precipitation 0.00 in - - ()
Sea Level Pressure  
Sea Level Pressure 29.79 in    
Wind  
Wind Speed 24 mph (NW)    
Max Wind Speed 32 mph    
Max Gust Speed 45 mph    
Visibility 5 miles    
Events Rain , Snow    
Averages and records for this station are not official NWS values.
T = Trace of Precipitation, MM = Missing Value Source: NWS Daily Summary

Daily Weather History Graph

Daily Weather History Graph

Search for Another Location

Airport or City:

Astronomy

Oct. 12, 2019 Rise Set
Actual Time 8:00 AM CDT 7:04 PM CDT
Civil Twilight 7:29 AM CDT 7:35 PM CDT
Nautical Twilight 6:54 AM CDT 8:10 PM CDT
Astronomical Twilight 6:18 AM CDT 8:46 PM CDT
Moon 7:09 PM CDT 6:29 AM CDT
Length of Visible Light 12h 05m
Length of Day
11h 04m
Waxing Gibbous, 99% of the Moon is Illuminated
Oct 12
Waxing Gibbous
Oct 13
Full
Oct 21
Last Quarter
Oct 27
New
Nov 4
First Quarter

Hourly Weather History & Observations

Time (CDT) Temp. Windchill Dew Point Humidity Pressure Visibility Wind Dir Wind Speed Gust Speed Precip Events Conditions
12:15 AM 35.6 °F 23.2 °F 23.0 °F 60% 29.81 in 10.0 mi NW 26.5 mph 32.2 mph N/A   Overcast
12:35 AM 35.6 °F 22.3 °F 23.0 °F 60% 29.80 in 10.0 mi NW 31.1 mph 38.0 mph N/A   Overcast
12:55 AM 33.8 °F 21.9 °F 24.8 °F 70% 29.80 in 10.0 mi North 21.9 mph 35.7 mph N/A   Overcast
1:15 AM 32.0 °F 18.9 °F 30.2 °F 93% 29.81 in 2.5 mi NNW 24.2 mph 29.9 mph N/A Snow Light Snow
1:35 AM 30.2 °F 17.1 °F 30.2 °F 100% 29.80 in 2.0 mi NNW 21.9 mph 32.2 mph N/A Snow Light Snow
1:55 AM 30.2 °F 16.2 °F 30.2 °F 100% 29.79 in 1.2 mi NW 25.3 mph 33.4 mph N/A Snow Light Snow
2:15 AM 30.2 °F 16.8 °F 30.2 °F 100% 29.79 in 2.0 mi NW 23.0 mph 38.0 mph N/A Snow Light Snow
2:35 AM 30.2 °F 16.2 °F 30.2 °F 100% 29.78 in 4.0 mi NW 25.3 mph 36.8 mph N/A Snow Light Snow
2:55 AM 30.2 °F 15.4 °F 30.2 °F 100% 29.78 in 1.8 mi NW 28.8 mph - N/A Snow Light Snow
3:15 AM 30.2 °F 15.7 °F 30.2 °F 100% 29.77 in 1.2 mi NW 27.6 mph 36.8 mph N/A Snow Light Snow
3:35 AM 30.2 °F 15.7 °F 30.2 °F 100% 29.77 in 0.8 mi NW 27.6 mph 36.8 mph N/A Snow Light Snow
3:55 AM 30.2 °F 14.9 °F 30.2 °F 100% 29.77 in 0.8 mi NW 31.1 mph - N/A Snow Light Snow
4:15 AM 30.2 °F 17.1 °F 30.2 °F 100% 29.77 in 0.8 mi NW 21.9 mph 35.7 mph N/A Snow Light Snow
4:35 AM 30.2 °F 15.7 °F 30.2 °F 100% 29.77 in 1.0 mi NW 27.6 mph 39.1 mph N/A Snow Light Snow
4:55 AM 30.2 °F 15.2 °F 30.2 °F 100% 29.77 in 0.8 mi NW 29.9 mph 44.9 mph N/A Snow Light Snow
5:15 AM 30.2 °F 15.4 °F 30.2 °F 100% 29.76 in 1.0 mi NW 28.8 mph 35.7 mph N/A Snow Light Snow
5:35 AM 30.2 °F 14.7 °F 30.2 °F 100% 29.75 in 0.8 mi NW 32.2 mph 40.3 mph N/A Snow Light Snow
5:55 AM 30.2 °F 15.4 °F 30.2 °F 100% 29.75 in 0.8 mi NW 28.8 mph 40.3 mph N/A Snow Light Snow
6:15 AM 30.2 °F 14.7 °F 30.2 °F 100% 29.75 in 0.8 mi NNW 32.2 mph 43.7 mph N/A Snow Light Snow
6:35 AM 30.2 °F 15.2 °F 30.2 °F 100% 29.76 in 1.0 mi NW 29.9 mph 38.0 mph N/A Snow Light Snow
6:55 AM 30.2 °F 15.2 °F 30.2 °F 100% 29.76 in 0.8 mi NW 29.9 mph 41.4 mph N/A   Overcast
7:15 AM 30.2 °F 14.9 °F 28.4 °F 93% 29.75 in 1.2 mi NW 31.1 mph 36.8 mph N/A Snow Light Snow
7:35 AM 30.2 °F 15.4 °F 30.2 °F 100% 29.74 in 1.2 mi NW 28.8 mph 35.7 mph N/A Snow Light Snow
7:55 AM 30.2 °F 15.9 °F 30.2 °F 100% 29.74 in 1.2 mi NW 26.5 mph 34.5 mph N/A Snow Light Snow
8:15 AM 30.2 °F 14.9 °F 28.4 °F 93% 29.74 in 0.8 mi NW 31.1 mph 38.0 mph N/A Snow Light Snow
8:35 AM 30.2 °F 17.4 °F 28.4 °F 93% 29.75 in 1.5 mi NW 20.7 mph 33.4 mph N/A   Mostly Cloudy
8:55 AM 30.2 °F 15.9 °F 28.4 °F 93% 29.74 in 1.2 mi NW 26.5 mph 34.5 mph N/A   Mostly Cloudy
9:15 AM 30.2 °F 15.4 °F 28.4 °F 93% 29.75 in 1.2 mi NW 28.8 mph 36.8 mph N/A   Overcast
9:35 AM 30.2 °F 15.7 °F 28.4 °F 93% 29.75 in 1.2 mi NNW 27.6 mph 36.8 mph N/A   Overcast
9:55 AM 30.2 °F - 28.4 °F 93% 29.75 in 1.0 mi North - - N/A Snow Light Snow
10:15 AM 30.2 °F 15.7 °F 28.4 °F 93% 29.76 in 1.5 mi NW 27.6 mph 38.0 mph N/A Snow Light Snow
10:35 AM 30.2 °F 15.9 °F 28.4 °F 93% 29.76 in 1.8 mi NW 26.5 mph 34.5 mph N/A Snow Light Snow
10:55 AM 30.2 °F 16.2 °F 28.4 °F 93% 29.76 in 1.2 mi NW 25.3 mph 33.4 mph N/A   Overcast
11:15 AM 30.2 °F 16.8 °F 28.4 °F 93% 29.77 in 2.0 mi NW 23.0 mph 33.4 mph N/A Snow Light Snow
11:35 AM 30.2 °F 16.5 °F 28.4 °F 93% 29.78 in 3.0 mi NW 24.2 mph 31.1 mph N/A Snow Light Snow
11:55 AM 30.2 °F 15.9 °F 28.4 °F 93% 29.77 in 2.0 mi NW 26.5 mph 33.4 mph N/A Snow Light Snow
12:15 PM 30.2 °F 15.7 °F 26.6 °F 86% 29.78 in 2.5 mi NW 27.6 mph 36.8 mph N/A Rain Light Freezing Rain
12:35 PM 30.2 °F 16.2 °F 26.6 °F 86% 29.79 in 1.0 mi NNW 25.3 mph 38.0 mph N/A Snow Light Snow
12:55 PM 32.0 °F 17.6 °F 26.6 °F 80% 29.79 in 2.5 mi NW 29.9 mph 35.7 mph N/A Snow Light Snow
1:15 PM 32.0 °F 18.9 °F 26.6 °F 80% 29.78 in 2.5 mi NW 24.2 mph 33.4 mph N/A Snow Light Snow
1:35 PM 32.0 °F 18.9 °F 26.6 °F 80% 29.78 in 3.0 mi NW 24.2 mph 34.5 mph N/A   Haze
1:55 PM 32.0 °F 19.5 °F 26.6 °F 80% 29.79 in 6.0 mi NW 21.9 mph 32.2 mph N/A   Haze
2:15 PM 32.0 °F 19.8 °F 26.6 °F 80% 29.79 in 3.0 mi NNW 20.7 mph 32.2 mph N/A   Haze
2:35 PM 32.0 °F 18.4 °F 26.6 °F 80% 29.80 in 9.0 mi NW 26.5 mph 32.2 mph N/A   Overcast
2:55 PM 32.0 °F 18.9 °F 26.6 °F 80% 29.79 in 4.0 mi NW 24.2 mph 29.9 mph N/A Snow Light Snow
3:15 PM 32.0 °F 19.8 °F 28.4 °F 87% 29.79 in 5.0 mi NW 20.7 mph 28.8 mph N/A Snow Light Snow
3:35 PM 32.0 °F 19.8 °F 28.4 °F 87% 29.79 in 10.0 mi NW 20.7 mph - N/A   Overcast
3:55 PM 33.8 °F 21.9 °F 28.4 °F 81% 29.79 in 10.0 mi NW 21.9 mph - N/A   Overcast
4:15 PM 33.8 °F 22.5 °F 28.4 °F 81% 29.80 in 10.0 mi NNW 19.6 mph 26.5 mph N/A   Overcast
4:35 PM 33.8 °F 21.3 °F 28.4 °F 81% 29.80 in 9.0 mi NW 24.2 mph - N/A   Overcast
4:55 PM 33.8 °F 22.8 °F 28.4 °F 81% 29.81 in 9.0 mi NNW 18.4 mph 25.3 mph N/A   Overcast
5:15 PM 33.8 °F 22.8 °F 28.4 °F 81% 29.81 in 4.0 mi NW 18.4 mph 24.2 mph N/A Snow Light Snow
5:35 PM 32.0 °F 20.1 °F 30.2 °F 93% 29.82 in 4.0 mi NNW 19.6 mph - N/A Snow Light Snow
5:55 PM 32.0 °F 21.6 °F 30.2 °F 93% 29.82 in 2.5 mi NNW 15.0 mph 23.0 mph N/A Snow Light Snow
6:15 PM 32.0 °F 20.5 °F 30.2 °F 93% 29.83 in 9.0 mi NW 18.4 mph - N/A   Overcast
6:35 PM 32.0 °F 21.6 °F 30.2 °F 93% 29.83 in 6.0 mi NW 15.0 mph 25.3 mph N/A   Overcast
6:55 PM 32.0 °F 21.2 °F 28.4 °F 87% 29.83 in 9.0 mi NNW 16.1 mph - N/A   Overcast
7:15 PM 32.0 °F 22.1 °F 28.4 °F 87% 29.84 in 8.0 mi NNW 13.8 mph - N/A Snow Light Snow
7:35 PM 32.0 °F 22.5 °F 28.4 °F 87% 29.84 in 8.0 mi NNW 12.7 mph 19.6 mph N/A Snow Light Snow
7:55 PM 33.8 °F 25.3 °F 28.4 °F 81% 29.84 in 10.0 mi NNW 11.5 mph - N/A   Overcast
8:15 PM 33.8 °F 24.3 °F 28.4 °F 81% 29.84 in 10.0 mi NNW 13.8 mph - N/A   Overcast
8:35 PM 32.0 °F 23.0 °F 28.4 °F 87% 29.84 in 10.0 mi NW 11.5 mph - N/A   Overcast
8:55 PM 32.0 °F 23.6 °F 28.4 °F 87% 29.84 in 10.0 mi NNW 10.4 mph - N/A   Overcast
9:15 PM 32.0 °F 24.2 °F 28.4 °F 87% 29.84 in 10.0 mi NW 9.2 mph - N/A   Overcast
9:35 PM 33.8 °F 25.3 °F 28.4 °F 81% 29.84 in 10.0 mi NNW 11.5 mph - N/A   Overcast
9:55 PM 33.8 °F 25.8 °F 28.4 °F 81% 29.84 in 10.0 mi NNW 10.4 mph - N/A   Overcast
10:15 PM 33.8 °F 25.8 °F 28.4 °F 81% 29.84 in 10.0 mi NNW 10.4 mph 17.3 mph N/A   Overcast
10:35 PM 33.8 °F 25.8 °F 28.4 °F 81% 29.84 in 10.0 mi NNW 10.4 mph - N/A   Overcast
10:55 PM 32.0 °F 23.0 °F 28.4 °F 87% 29.84 in 10.0 mi NNW 11.5 mph - N/A   Overcast
11:15 PM 32.0 °F 24.2 °F 28.4 °F 87% 29.84 in 10.0 mi NNW 9.2 mph - N/A   Overcast
11:35 PM 32.0 °F 22.5 °F 28.4 °F 87% 29.83 in 10.0 mi NNW 12.7 mph - N/A   Overcast
11:55 PM 32.0 °F 23.6 °F 28.4 °F 87% 29.83 in 10.0 mi NNW 10.4 mph 17.3 mph N/A   Overcast